createdAt,value
2022-10-18T00:00:26.922Z,99.94
2022-10-18T00:02:44.286Z,100.00
2022-10-18T00:05:01.285Z,99.02
2022-10-18T00:07:20.498Z,100.00
2022-10-18T00:09:37.446Z,99.93
2022-10-18T00:11:54.609Z,99.29
2022-10-18T00:14:11.925Z,99.86
2022-10-18T00:16:28.972Z,98.72
2022-10-18T00:18:46.285Z,99.90
2022-10-18T00:21:04.556Z,100.00
2022-10-18T00:23:21.581Z,98.94
2022-10-18T00:25:38.497Z,98.67
2022-10-18T00:27:55.425Z,98.90
2022-10-18T00:30:13.619Z,99.17
2022-10-18T00:32:31.239Z,100.00
2022-10-18T00:34:48.604Z,100.00
2022-10-18T00:37:05.511Z,99.13
2022-10-18T00:39:22.548Z,99.90
2022-10-18T00:41:39.529Z,99.18
2022-10-18T00:43:57.681Z,100.00
2022-10-18T00:46:14.722Z,98.94
2022-10-18T00:48:31.655Z,99.86
2022-10-18T00:50:48.696Z,100.00
2022-10-18T00:53:05.707Z,100.00
2022-10-18T00:55:22.726Z,99.77
2022-10-18T00:57:39.933Z,100.00
2022-10-18T00:59:57.876Z,99.93
2022-10-18T01:02:15.142Z,100.00
2022-10-18T01:04:32.142Z,100.00
2022-10-18T01:06:50.211Z,100.00
2022-10-18T01:09:07.233Z,100.00
2022-10-18T01:11:26.847Z,100.00
2022-10-18T01:13:43.768Z,99.95
2022-10-18T01:16:00.771Z,99.70
2022-10-18T01:18:17.844Z,100.00
2022-10-18T01:20:35.117Z,100.00
2022-10-18T01:22:52.377Z,100.00
2022-10-18T01:25:09.446Z,100.00
2022-10-18T01:27:26.460Z,100.00
2022-10-18T01:29:43.716Z,100.00
2022-10-18T01:32:00.660Z,100.00
2022-10-18T01:34:17.704Z,100.00
2022-10-18T01:36:34.784Z,100.00
2022-10-18T01:38:51.680Z,100.00
2022-10-18T01:41:14.740Z,99.78
2022-10-18T01:43:34.195Z,99.25
2022-10-18T01:45:51.420Z,97.76
2022-10-18T01:48:08.465Z,97.41
2022-10-18T01:50:25.801Z,98.16
2022-10-18T01:52:42.816Z,97.04
2022-10-18T01:54:59.769Z,97.32
2022-10-18T01:57:18.420Z,97.30
2022-10-18T01:59:35.307Z,97.84
2022-10-18T02:01:52.356Z,97.77
2022-10-18T02:04:09.638Z,98.99
2022-10-18T02:06:26.968Z,98.87
2022-10-18T02:08:44.304Z,98.32
2022-10-18T02:11:02.408Z,97.76
2022-10-18T02:13:19.343Z,98.56
2022-10-18T02:15:36.612Z,98.54
2022-10-18T02:17:53.841Z,98.53
2022-10-18T02:20:14.147Z,98.79
2022-10-18T02:22:32.842Z,99.23
2022-10-18T02:24:50.076Z,100.00
2022-10-18T02:27:07.015Z,98.92
2022-10-18T02:29:23.930Z,98.90
2022-10-18T02:31:40.964Z,99.51
2022-10-18T02:33:58.012Z,100.00
2022-10-18T02:36:15.012Z,99.43
2022-10-18T02:38:31.989Z,99.78
2022-10-18T02:40:49.082Z,99.75
2022-10-18T02:43:07.385Z,99.97
2022-10-18T02:45:24.294Z,99.81
2022-10-18T02:47:42.494Z,100.00
2022-10-18T02:50:00.411Z,100.00
2022-10-18T02:52:18.669Z,99.82
2022-10-18T02:54:36.015Z,100.00
2022-10-18T02:56:52.942Z,100.00
2022-10-18T02:59:10.007Z,99.70
2022-10-18T03:01:26.973Z,100.00
2022-10-18T03:03:44.199Z,100.00
2022-10-18T03:06:03.307Z,99.92
2022-10-18T03:08:21.472Z,99.23
2022-10-18T03:10:38.798Z,100.00
2022-10-18T03:12:55.830Z,100.00
2022-10-18T03:15:13.103Z,100.00
2022-10-18T03:17:31.379Z,100.00
2022-10-18T03:19:48.603Z,100.00
2022-10-18T03:22:05.546Z,100.00
2022-10-18T03:24:23.846Z,100.00
2022-10-18T03:26:40.816Z,100.00
2022-10-18T03:28:57.778Z,100.00
2022-10-18T03:31:14.689Z,100.00
2022-10-18T03:33:33.007Z,100.00
2022-10-18T03:35:50.226Z,100.00
2022-10-18T03:38:07.476Z,100.00
2022-10-18T03:40:24.769Z,100.00
2022-10-18T03:42:41.798Z,100.00
2022-10-18T03:44:59.076Z,100.00
2022-10-18T03:47:16.189Z,100.00
2022-10-18T03:51:51.482Z,100.00
2022-10-18T03:54:08.686Z,100.00
2022-10-18T03:56:26.601Z,100.00
2022-10-18T03:58:43.656Z,100.00
2022-10-18T04:01:00.952Z,100.00
2022-10-18T04:03:18.229Z,100.00
2022-10-18T04:05:35.285Z,100.00
2022-10-18T04:07:52.391Z,99.97
2022-10-18T04:10:09.370Z,99.70
2022-10-18T04:12:26.533Z,100.00
2022-10-18T04:14:43.594Z,100.00
2022-10-18T04:17:00.981Z,100.00
2022-10-18T04:19:17.869Z,100.00
2022-10-18T04:21:35.156Z,100.00
2022-10-18T04:23:52.037Z,100.00
2022-10-18T04:26:10.281Z,100.00
2022-10-18T04:28:27.571Z,100.00
2022-10-18T04:30:44.621Z,100.00
2022-10-18T04:33:01.502Z,100.00
2022-10-18T04:35:18.731Z,100.00
2022-10-18T04:37:35.964Z,100.00
2022-10-18T04:39:53.796Z,100.00
2022-10-18T04:42:11.237Z,100.00
2022-10-18T04:44:28.272Z,100.00
2022-10-18T04:46:45.460Z,100.00
2022-10-18T04:49:02.690Z,100.00
2022-10-18T04:51:19.681Z,100.00
2022-10-18T04:53:36.960Z,100.00
2022-10-18T04:55:53.979Z,100.00
2022-10-18T04:58:11.025Z,100.00
2022-10-18T05:00:28.258Z,100.00
2022-10-18T05:02:45.285Z,100.00
2022-10-18T05:05:03.652Z,100.00
2022-10-18T05:07:20.664Z,100.00
2022-10-18T05:09:37.739Z,100.00
2022-10-18T05:11:54.773Z,100.00
2022-10-18T05:14:12.182Z,100.00
2022-10-18T05:16:29.438Z,100.00
2022-10-18T05:18:46.730Z,100.00
2022-10-18T05:21:03.649Z,100.00
2022-10-18T05:23:20.689Z,100.00
2022-10-18T05:25:37.688Z,100.00
2022-10-18T05:27:54.600Z,100.00
2022-10-18T05:30:11.847Z,100.00
2022-10-18T05:32:28.911Z,100.00
2022-10-18T05:34:46.187Z,100.00
2022-10-18T05:37:03.140Z,100.00
2022-10-18T05:39:20.166Z,100.00
2022-10-18T05:41:37.207Z,100.00
2022-10-18T05:43:54.409Z,100.00
2022-10-18T05:46:15.073Z,100.00
2022-10-18T05:48:32.582Z,100.00
2022-10-18T05:50:49.612Z,100.00
2022-10-18T05:53:12.008Z,100.00
2022-10-18T05:55:29.767Z,100.00
2022-10-18T05:57:46.917Z,100.00
2022-10-18T06:00:03.825Z,100.00
2022-10-18T06:02:21.205Z,100.00
2022-10-18T06:04:38.466Z,100.00
2022-10-18T06:06:55.738Z,100.00
2022-10-18T06:09:12.977Z,100.00
2022-10-18T06:11:29.857Z,100.00
2022-10-18T06:13:47.155Z,100.00
2022-10-18T06:16:04.369Z,100.00
2022-10-18T06:18:21.651Z,100.00
2022-10-18T06:20:38.929Z,100.00
2022-10-18T06:22:55.934Z,100.00
2022-10-18T06:25:13.173Z,100.00
2022-10-18T06:27:30.278Z,100.00
2022-10-18T06:29:47.349Z,100.00
2022-10-18T06:32:04.248Z,100.00
2022-10-18T06:34:21.485Z,100.00
2022-10-18T06:36:38.856Z,100.00
2022-10-18T06:38:56.034Z,100.00
2022-10-18T06:41:13.121Z,100.00
2022-10-18T06:43:30.420Z,100.00
2022-10-18T06:45:47.404Z,100.00
2022-10-18T06:48:04.651Z,100.00
2022-10-18T06:50:21.639Z,100.00
2022-10-18T06:52:42.042Z,100.00
2022-10-18T06:54:59.660Z,100.00
2022-10-18T06:57:16.599Z,100.00
2022-10-18T06:59:33.821Z,100.00
2022-10-18T07:01:50.926Z,100.00
2022-10-18T07:04:08.212Z,100.00
2022-10-18T07:06:25.190Z,100.00
2022-10-18T07:08:42.219Z,100.00
2022-10-18T07:10:59.246Z,100.00
2022-10-18T07:13:33.097Z,100.00
2022-10-18T07:15:50.337Z,100.00
2022-10-18T07:18:10.455Z,100.00
2022-10-18T07:20:27.507Z,100.00
2022-10-18T07:22:44.539Z,100.00
2022-10-18T07:25:01.672Z,100.00
2022-10-18T07:27:18.707Z,100.00
2022-10-18T07:29:35.629Z,100.00
2022-10-18T07:31:52.547Z,100.00
2022-10-18T07:34:09.565Z,100.00
2022-10-18T07:36:26.876Z,100.00
2022-10-18T07:38:44.097Z,100.00
2022-10-18T07:41:01.351Z,100.00
2022-10-18T07:43:18.577Z,100.00
2022-10-18T07:47:52.941Z,100.00
2022-10-18T07:50:10.277Z,100.00
2022-10-18T07:52:27.497Z,100.00
2022-10-18T07:54:44.886Z,100.00
2022-10-18T07:57:01.802Z,100.00
2022-10-18T07:59:18.829Z,100.00
2022-10-18T08:01:35.927Z,100.00
2022-10-18T08:03:53.260Z,100.00
2022-10-18T08:06:10.260Z,100.00
2022-10-18T08:08:27.138Z,100.00
2022-10-18T08:10:44.094Z,100.00
2022-10-18T08:13:01.325Z,100.00
2022-10-18T08:15:18.325Z,100.00
2022-10-18T08:17:35.441Z,100.00
2022-10-18T08:20:04.829Z,100.00
2022-10-18T08:22:29.816Z,100.00
2022-10-18T08:24:48.067Z,100.00
2022-10-18T08:27:05.090Z,100.00
2022-10-18T08:29:24.979Z,100.00
2022-10-18T08:31:43.969Z,100.00
2022-10-18T08:34:01.219Z,100.00
2022-10-18T08:36:20.685Z,100.00
2022-10-18T08:38:37.985Z,100.00
2022-10-18T08:40:55.020Z,100.00
2022-10-18T08:43:12.016Z,100.00
2022-10-18T08:45:41.509Z,100.00
2022-10-18T08:47:59.794Z,100.00
2022-10-18T08:50:16.807Z,100.00
2022-10-18T08:52:33.862Z,100.00
2022-10-18T08:54:52.081Z,99.74
2022-10-18T08:57:08.997Z,100.00
2022-10-18T08:59:26.943Z,100.00
2022-10-18T09:01:44.097Z,100.00
2022-10-18T09:04:01.160Z,98.38
2022-10-18T09:06:21.172Z,99.08
2022-10-18T09:08:40.307Z,98.37
2022-10-18T09:13:15.362Z,97.52
2022-10-18T09:15:32.347Z,99.17
2022-10-18T09:17:49.480Z,97.91
2022-10-18T09:20:08.890Z,99.65
2022-10-18T09:22:26.223Z,98.06
2022-10-18T09:24:43.150Z,97.49
2022-10-18T09:27:00.085Z,98.43
2022-10-18T09:29:17.024Z,99.48
2022-10-18T09:31:34.290Z,98.12
2022-10-18T09:33:51.298Z,97.68
2022-10-18T09:36:08.235Z,97.90
2022-10-18T09:40:44.472Z,99.05
2022-10-18T09:43:01.462Z,99.47
2022-10-18T09:45:18.455Z,99.44
2022-10-18T09:47:35.792Z,97.29
2022-10-18T09:49:52.806Z,98.99
2022-10-18T09:52:17.134Z,98.64
2022-10-18T09:54:34.164Z,97.95
2022-10-18T09:56:52.246Z,96.42
2022-10-18T09:59:09.540Z,97.38
2022-10-18T10:01:26.577Z,96.66
2022-10-18T10:03:43.791Z,95.83
2022-10-18T10:06:00.772Z,94.47
2022-10-18T10:08:18.478Z,93.75
2022-10-18T10:10:35.502Z,93.24
2022-10-18T10:12:52.543Z,92.61
2022-10-18T10:15:09.425Z,91.21
2022-10-18T10:17:26.616Z,90.98
2022-10-18T10:19:43.920Z,89.75
2022-10-18T10:22:02.142Z,88.87
2022-10-18T10:24:19.268Z,88.58
2022-10-18T10:26:36.345Z,89.25
2022-10-18T10:28:53.480Z,89.14
2022-10-18T10:31:10.790Z,89.02
2022-10-18T10:33:31.512Z,88.02
2022-10-18T10:35:54.295Z,89.00
2022-10-18T10:38:11.530Z,90.17
2022-10-18T10:40:28.932Z,88.00
2022-10-18T10:42:46.794Z,87.00
2022-10-18T10:45:03.925Z,87.61
2022-10-18T10:47:22.109Z,87.32
2022-10-18T10:49:40.769Z,87.01
2022-10-18T10:52:08.916Z,86.39
2022-10-18T10:54:32.996Z,86.61
2022-10-18T10:56:50.265Z,85.95
2022-10-18T10:59:07.367Z,86.44
2022-10-18T11:01:24.709Z,85.49
2022-10-18T11:03:41.760Z,84.58
2022-10-18T11:05:58.985Z,85.48
2022-10-18T11:08:19.386Z,84.72
2022-10-18T11:10:38.748Z,86.01
2022-10-18T11:12:56.190Z,85.48
2022-10-18T11:15:15.753Z,85.93
2022-10-18T11:17:32.666Z,86.68
2022-10-18T11:19:50.934Z,86.30
2022-10-18T11:22:09.342Z,85.84
2022-10-18T11:24:35.752Z,85.14
2022-10-18T11:26:53.855Z,84.65
2022-10-18T11:29:12.038Z,83.17
2022-10-18T11:31:29.356Z,82.91
2022-10-18T11:34:08.124Z,80.83
2022-10-18T11:38:45.625Z,81.43
2022-10-18T11:41:03.237Z,80.85
2022-10-18T11:43:20.300Z,81.75
2022-10-18T11:45:37.532Z,81.95
2022-10-18T11:47:55.864Z,82.37
2022-10-18T11:50:13.334Z,82.65
2022-10-18T11:52:30.259Z,81.90
2022-10-18T11:54:48.254Z,81.64
2022-10-18T11:57:05.257Z,82.73
2022-10-18T11:59:22.164Z,82.41
2022-10-18T12:01:44.338Z,82.40
2022-10-18T12:04:02.212Z,81.87
2022-10-18T12:06:22.356Z,80.74
2022-10-18T12:08:39.309Z,80.77
2022-10-18T12:11:05.114Z,79.97
2022-10-18T12:13:24.051Z,81.63
2022-10-18T12:15:41.004Z,81.49
2022-10-18T12:17:58.010Z,81.03
2022-10-18T12:20:15.055Z,80.88
2022-10-18T12:22:39.620Z,80.11
2022-10-18T12:24:56.964Z,77.93
2022-10-18T12:27:15.219Z,77.97
2022-10-18T12:29:32.298Z,78.35
2022-10-18T12:31:49.260Z,77.95
2022-10-18T12:34:06.392Z,79.20
2022-10-18T12:36:26.217Z,78.14
2022-10-18T12:38:49.746Z,79.12
2022-10-18T12:41:12.155Z,78.70
2022-10-18T12:43:29.135Z,79.28
2022-10-18T12:45:46.207Z,80.83
2022-10-18T12:48:05.672Z,78.88
2022-10-18T12:50:23.000Z,80.95
2022-10-18T12:52:40.107Z,80.77
2022-10-18T12:54:57.519Z,79.88
2022-10-18T12:57:14.703Z,79.62
2022-10-18T12:59:32.635Z,79.77
2022-10-18T13:01:52.158Z,78.24
2022-10-18T13:04:09.153Z,78.55
2022-10-18T13:06:26.361Z,77.63
2022-10-18T13:08:43.412Z,77.79
2022-10-18T13:11:02.375Z,78.76
2022-10-18T13:13:38.712Z,77.16
2022-10-18T13:15:57.256Z,76.70
2022-10-18T13:18:14.534Z,76.34
2022-10-18T13:20:32.505Z,77.02
2022-10-18T13:22:49.762Z,77.59
2022-10-18T13:25:07.021Z,78.87
2022-10-18T13:27:35.461Z,79.87
2022-10-18T13:29:53.076Z,78.87
2022-10-18T13:32:10.095Z,79.39
2022-10-18T13:34:27.297Z,79.96
2022-10-18T13:36:44.587Z,80.53
2022-10-18T13:39:01.513Z,81.03
2022-10-18T13:41:18.671Z,81.41
2022-10-18T13:43:35.638Z,81.08
2022-10-18T13:45:52.862Z,81.42
2022-10-18T13:48:09.787Z,81.84
2022-10-18T13:50:26.935Z,82.07
2022-10-18T13:52:43.846Z,82.80
2022-10-18T13:55:00.785Z,81.98
2022-10-18T13:57:17.713Z,82.55
2022-10-18T14:01:58.097Z,83.08
2022-10-18T14:04:15.342Z,81.38
2022-10-18T14:06:32.698Z,82.11
2022-10-18T14:08:50.012Z,82.73
2022-10-18T14:11:06.877Z,82.47
2022-10-18T14:13:23.817Z,83.21
2022-10-18T14:15:40.752Z,82.95
2022-10-18T14:17:57.760Z,82.82
2022-10-18T14:20:15.015Z,82.36
2022-10-18T14:22:33.574Z,81.68
2022-10-18T14:24:50.999Z,81.32
2022-10-18T14:27:07.944Z,81.49
2022-10-18T14:29:25.005Z,82.16
2022-10-18T14:31:42.047Z,81.81
2022-10-18T14:33:59.134Z,82.29
2022-10-18T14:36:16.157Z,81.79
2022-10-18T14:38:33.407Z,80.96
2022-10-18T14:40:50.459Z,80.63
2022-10-18T14:43:07.795Z,81.30
2022-10-18T14:45:25.078Z,80.33
2022-10-18T14:47:42.147Z,81.14
2022-10-18T14:49:59.116Z,80.18
2022-10-18T14:52:16.102Z,80.59
2022-10-18T14:54:33.351Z,81.80
2022-10-18T14:56:50.426Z,82.19
2022-10-18T14:59:07.463Z,81.85
2022-10-18T15:01:24.533Z,82.38
2022-10-18T15:03:41.612Z,82.58
2022-10-18T15:05:58.533Z,82.70
2022-10-18T15:08:15.540Z,83.31
2022-10-18T15:10:32.950Z,83.71
2022-10-18T15:15:27.212Z,85.24
2022-10-18T15:17:44.490Z,87.23
2022-10-18T15:20:05.052Z,87.27
2022-10-18T15:22:38.498Z,87.69
2022-10-18T15:24:55.607Z,88.54
2022-10-18T15:27:12.660Z,88.95
2022-10-18T15:29:30.073Z,89.19
2022-10-18T15:31:47.029Z,88.63
2022-10-18T15:34:04.000Z,89.30
2022-10-18T15:36:21.068Z,89.99
2022-10-18T15:38:38.035Z,90.13
2022-10-18T15:40:55.347Z,90.39
2022-10-18T15:43:12.498Z,90.09
2022-10-18T15:45:29.512Z,90.18
2022-10-18T15:47:47.638Z,89.39
2022-10-18T15:50:04.582Z,89.78
2022-10-18T15:52:21.441Z,89.74
2022-10-18T15:54:38.489Z,90.77
2022-10-18T15:56:55.890Z,90.69
2022-10-18T15:59:12.928Z,90.42
2022-10-18T16:01:30.317Z,92.25
2022-10-18T16:03:47.457Z,91.82
2022-10-18T16:06:04.767Z,92.56
2022-10-18T16:08:21.810Z,91.96
2022-10-18T16:10:38.699Z,93.71
2022-10-18T16:15:17.629Z,93.32
2022-10-18T16:17:35.069Z,93.39
2022-10-18T16:19:52.342Z,93.79
2022-10-18T16:22:10.286Z,92.72
2022-10-18T16:24:28.008Z,93.71
2022-10-18T16:26:45.330Z,92.22
2022-10-18T16:29:02.356Z,92.13
2022-10-18T16:31:19.374Z,92.29
2022-10-18T16:33:36.378Z,91.97
2022-10-18T16:35:53.375Z,92.61
2022-10-18T16:38:11.413Z,92.35
2022-10-18T16:40:28.373Z,92.63
2022-10-18T16:42:45.299Z,91.75
2022-10-18T16:45:02.173Z,93.29
2022-10-18T16:47:19.570Z,92.84
2022-10-18T16:49:37.945Z,93.50
2022-10-18T16:51:55.200Z,92.59
2022-10-18T16:54:13.224Z,93.85
2022-10-18T16:56:30.102Z,94.07
2022-10-18T16:58:47.021Z,94.19
2022-10-18T17:01:06.707Z,92.96
2022-10-18T17:03:25.906Z,93.39
2022-10-18T17:05:42.920Z,94.80
2022-10-18T17:07:59.958Z,95.05
2022-10-18T17:10:16.847Z,94.29
2022-10-18T17:12:34.123Z,95.06
2022-10-18T17:14:51.315Z,94.29
2022-10-18T17:17:08.602Z,95.62
2022-10-18T17:19:25.947Z,94.94
2022-10-18T17:21:42.989Z,94.75
2022-10-18T17:24:01.212Z,95.45
2022-10-18T17:26:28.186Z,94.97
2022-10-18T17:28:46.459Z,94.65
2022-10-18T17:31:03.846Z,95.82
2022-10-18T17:33:20.684Z,94.84
2022-10-18T17:35:37.664Z,95.43
2022-10-18T17:37:54.694Z,95.44
2022-10-18T17:40:11.629Z,94.23
2022-10-18T17:42:32.056Z,94.89
2022-10-18T17:44:50.426Z,95.21
2022-10-18T17:47:09.059Z,95.61
2022-10-18T17:49:26.064Z,95.71
2022-10-18T17:51:43.120Z,96.00
2022-10-18T17:54:00.138Z,96.03
2022-10-18T17:56:17.070Z,95.80
2022-10-18T17:58:34.502Z,95.73
2022-10-18T18:00:51.721Z,95.99
2022-10-18T18:03:08.984Z,96.26
2022-10-18T18:05:26.321Z,96.18
2022-10-18T18:07:43.325Z,96.28
2022-10-18T18:10:01.420Z,96.32
2022-10-18T18:12:18.485Z,96.28
2022-10-18T18:14:35.748Z,96.32
2022-10-18T18:16:53.055Z,96.12
2022-10-18T18:19:10.324Z,96.43
2022-10-18T18:21:27.672Z,95.96
2022-10-18T18:23:44.548Z,96.08
2022-10-18T18:26:01.560Z,96.16
2022-10-18T18:28:18.808Z,95.76
2022-10-18T18:30:36.122Z,95.85
2022-10-18T18:32:53.163Z,95.89
2022-10-18T18:35:10.212Z,95.67
2022-10-18T18:37:27.466Z,95.52
2022-10-18T18:39:44.476Z,95.96
2022-10-18T18:42:01.543Z,95.97
2022-10-18T18:44:18.837Z,95.94
2022-10-18T18:46:35.894Z,96.23
2022-10-18T18:48:52.856Z,96.39
2022-10-18T18:51:09.779Z,95.62
2022-10-18T18:53:29.449Z,95.82
2022-10-18T18:55:47.026Z,96.20
2022-10-18T18:58:04.923Z,96.04
2022-10-18T19:00:21.968Z,96.44
2022-10-18T19:02:39.002Z,96.81
2022-10-18T19:04:56.295Z,96.23
2022-10-18T19:07:13.657Z,96.41
2022-10-18T19:09:30.913Z,96.48
2022-10-18T19:11:47.868Z,96.41
2022-10-18T19:14:05.868Z,96.02
2022-10-18T19:16:22.777Z,96.62
2022-10-18T19:18:39.745Z,95.93
2022-10-18T19:20:56.738Z,96.98
2022-10-18T19:23:14.035Z,96.71
2022-10-18T19:25:31.326Z,95.84
2022-10-18T19:27:48.607Z,96.53
2022-10-18T19:30:05.887Z,96.68
2022-10-18T19:32:23.184Z,96.37
2022-10-18T19:34:40.512Z,96.54
2022-10-18T19:36:57.740Z,95.74
2022-10-18T19:39:14.714Z,96.82
2022-10-18T19:41:31.768Z,96.80
2022-10-18T19:43:48.759Z,96.24
2022-10-18T19:46:05.678Z,96.93
2022-10-18T19:48:22.622Z,96.75
2022-10-18T19:50:39.888Z,96.92
2022-10-18T19:52:57.098Z,97.47
2022-10-18T19:55:14.378Z,97.20
2022-10-18T19:57:31.330Z,96.56
2022-10-18T19:59:48.309Z,96.79
2022-10-18T20:02:05.307Z,96.26
2022-10-18T20:04:22.244Z,96.58
2022-10-18T20:06:39.291Z,96.86
2022-10-18T20:08:56.216Z,95.94
2022-10-18T20:11:13.233Z,97.01
2022-10-18T20:13:31.798Z,97.29
2022-10-18T20:15:48.871Z,97.45
2022-10-18T20:18:05.822Z,97.22
2022-10-18T20:20:22.843Z,95.78
2022-10-18T20:22:39.834Z,97.01
2022-10-18T20:24:57.029Z,96.19
2022-10-18T20:27:13.921Z,96.29
2022-10-18T20:29:31.178Z,96.15
2022-10-18T20:31:48.448Z,97.30
2022-10-18T20:34:05.486Z,97.27
2022-10-18T20:36:23.668Z,95.74
2022-10-18T20:38:40.748Z,95.59
2022-10-18T20:40:57.807Z,97.08
2022-10-18T20:43:14.785Z,96.61
2022-10-18T20:45:31.717Z,95.70
2022-10-18T20:47:48.917Z,95.77
2022-10-18T20:50:07.177Z,95.78
2022-10-18T20:52:24.094Z,95.53
2022-10-18T20:54:41.198Z,96.38
2022-10-18T20:56:59.072Z,95.66
2022-10-18T20:59:16.282Z,96.22
2022-10-18T21:01:33.310Z,96.88
2022-10-18T21:03:50.378Z,96.55
2022-10-18T21:06:07.659Z,96.86
2022-10-18T21:08:24.646Z,95.58
2022-10-18T21:10:41.970Z,97.55
2022-10-18T21:12:59.221Z,96.55
2022-10-18T21:15:16.216Z,96.80
2022-10-18T21:17:33.190Z,96.79
2022-10-18T21:19:50.399Z,96.61
2022-10-18T21:22:07.526Z,96.60
2022-10-18T21:24:24.500Z,96.93
2022-10-18T21:26:43.912Z,96.36
2022-10-18T21:29:01.283Z,96.78
2022-10-18T21:31:18.448Z,97.08
2022-10-18T21:33:35.432Z,96.31
2022-10-18T21:35:52.347Z,96.60
2022-10-18T21:38:09.773Z,97.44
2022-10-18T21:40:29.405Z,96.57
2022-10-18T21:42:47.269Z,97.11
2022-10-18T21:45:04.578Z,97.11
2022-10-18T21:47:21.859Z,95.38
2022-10-18T21:49:38.900Z,96.81
2022-10-18T21:51:55.817Z,97.46
2022-10-18T21:54:13.172Z,95.40
2022-10-18T21:56:30.268Z,96.83
2022-10-18T21:58:47.464Z,97.03
2022-10-18T22:01:05.899Z,97.32
2022-10-18T22:03:23.240Z,95.63
2022-10-18T22:05:40.251Z,96.74
2022-10-18T22:07:57.231Z,96.84
2022-10-18T22:10:14.542Z,95.65
2022-10-18T22:12:31.929Z,96.43
2022-10-18T22:14:49.973Z,96.26
2022-10-18T22:17:09.299Z,96.93
2022-10-18T22:19:26.551Z,95.22
2022-10-18T22:21:43.861Z,97.00
2022-10-18T22:24:01.897Z,95.63
2022-10-18T22:26:19.459Z,96.57
2022-10-18T22:28:37.894Z,96.79
2022-10-18T22:30:55.899Z,95.34
2022-10-18T22:33:13.050Z,95.52
2022-10-18T22:35:30.123Z,96.03
2022-10-18T22:37:47.100Z,96.79
2022-10-18T22:40:04.504Z,97.79
2022-10-18T22:42:21.985Z,96.56
2022-10-18T22:44:38.940Z,97.54
2022-10-18T22:46:56.116Z,96.96
2022-10-18T22:49:13.467Z,96.90
2022-10-18T22:51:31.437Z,96.90
2022-10-18T22:53:48.435Z,97.35
2022-10-18T22:56:06.514Z,96.94
2022-10-18T22:58:23.873Z,97.03
2022-10-18T23:00:40.819Z,97.40
2022-10-18T23:02:58.181Z,97.12
2022-10-18T23:05:15.285Z,96.47
2022-10-18T23:07:32.165Z,95.69
2022-10-18T23:09:49.165Z,95.08
2022-10-18T23:12:06.490Z,95.31
2022-10-18T23:14:24.686Z,95.49
2022-10-18T23:16:41.669Z,96.04
2022-10-18T23:18:59.005Z,95.52
2022-10-18T23:21:16.353Z,96.76
2022-10-18T23:23:33.286Z,95.56
2022-10-18T23:25:51.744Z,95.15
2022-10-18T23:28:09.168Z,96.50
2022-10-18T23:30:26.494Z,95.72
2022-10-18T23:32:43.464Z,94.89
2022-10-18T23:35:01.472Z,96.18
2022-10-18T23:37:18.599Z,96.50
2022-10-18T23:39:35.894Z,96.61
2022-10-18T23:41:54.148Z,95.62
2022-10-18T23:44:11.514Z,95.07
2022-10-18T23:46:28.777Z,96.37
2022-10-18T23:48:46.021Z,96.34
2022-10-18T23:51:03.321Z,95.43
2022-10-18T23:53:20.474Z,96.34
2022-10-18T23:55:37.873Z,96.11
2022-10-18T23:57:57.116Z,95.59
